Darrington, WA (98241)

09:20 PM PDT die 25o October, anno 2014 (GMT -0700)
Glacier View Internet | Change Station
CLOSE
Current Station
Personal Weather Stations
Location: Darrington, WA
Elevation: 549 ft
Nearby Weather Stations

Elev 549 ft 48.25 °N, 121.61 °W | Updated 5 minutes ago

Pluvia
Pluvia
52.7 °F
Feels Like 52.7 °F
N
3.0
Ventus Variabilis Ventus from Zephyrus
Gusts 9.0 mph

Hodie
High -- | Low -- °F
--% Chance of Precip.
Yesterday
High -- | Low -- °F
Precip. -- in
7:41 AM 5:58 PM
Waxing Crescent, 6% visible
Pressio 29.50 in
Visibilitas 10.0 milia passuum
Clouds Plerumque Nubila 1200 ft
Aequaliter Nubila 1900 ft
Frigus in quo Ros apparet Not available.
Umor Not available.
Rainfall 0.70 in
Snow Depth Not available.
UV 0 out of 12
Pollen .40 out of 12
PM2.5 Good
Flu Activity Sporadic
METAR KAWO 260415Z AUTO 22009KT 10SM BKN012 OVC019 12/09 A2950 RMK AO1 P0001

More Conditions Fewer Conditions

Pressio 29.50 in
Visibilitas 10.0 milia passuum
Clouds Plerumque Nubila 1200 ft
Aequaliter Nubila 1900 ft
Frigus in quo Ros apparet Not available.
Umor Not available.
Rainfall 0.70 in
Snow Depth Not available.
UV 0 out of 12
Pollen .40 out of 12
PM2.5 Good
Flu Activity Sporadic
METAR KAWO 260415Z AUTO 22009KT 10SM BKN012 OVC019 12/09 A2950 RMK AO1 P0001

More Conditions Fewer Conditions

10-Day Weather Forecast

Almanac

Astronomy

Oct. 25, 2014 Rise Set
Actual Time 7:41 AM PDT 5:58 PM PDT
Civil Twilight 7:09 AM PDT 6:30 PM PDT
Nautical Twilight 6:32 AM PDT 7:07 PM PDT
Astronomical Twilight 5:56 AM PDT 7:43 PM PDT
Moon 9:31 AM PDT (10/25) 7:18 PM PDT (10/25)
Length Of Visible Light 11h 21m
Length of Day
10h 17m
Tomorrow will be 3m 16s shorter.
Waxing Crescent, 6% of the Moon is Illuminated
Oct 26
Waxing Crescent
Oct 30
First Quarter
Nov 6
Full
Nov 14
Last Quarter
Nov 22
New

Yesterday's Extremes

State Highs State Lows

Community

WunderPhotos

Upload Photos

1,765,110 photos uploaded!

Nearby

Air Quality

  Air Quality AQ Index Pollutant
Yesterday Good
OZONE
Yesterday Good
PM2.5
Current Good
PM2.5
Die Saturni Good
PM2.5
Die Solis Good
PM2.5
Die Lunae Good
PM2.5
Die Martis Good
PM2.5
Die Mercurii Good
PM2.5

Snow Depth

Station Depth Elevation
Lyman Lake 6 in 5900 ft
Alpine Meadows 0 in 3500 ft
Park Creek Ridge 0 in 4600 ft
Mf Nooksack 2 in 4980 ft
Wells Creek 0 in 4200 ft

Earthquake Activity

City Distance Mag. Time & Date
Birch Bay, Washington 68 milia passuum 2.8 3:02 AM PDT
2014-10-24
Minimum magnitude displayed is 2.5.

Coastal Water Temperatures

Locus Calor
No Stations Reporting

Nearby Weather Stations